Nobe, West Virginia
Current Conditions -  °F | °C
As of 4:25 PM on Thursday 23 Oct 2014 (Local Time) from KPKB Reporting Station
Broken Clouds Broken Clouds  
Wind Chill: 57°   Ceiling: 3000
Heat Index: 57°   Visibility: 10mi
Dew Point: 42°   Wind: 0mph
Humidity: 57%   Direction: NA
Pressure: 30.15"   Gusts: NA
Location:  38.9756°N, 80.9915°W
Report Text: KPKB 232025Z 00000KT 10SM BKN030 14/06 A3015 RMK AO2 T01390056
Loading
Personal Weather Stations






























Interactive Weather Map
Tropical Storm Tracking
New forecast layout! Learn more

10-Day Weather Forecast

Advertisements
Track Severe Weather on mobile